Airfield :
LOGIN :

Register | Disclaimer

   EN    FR    IT 

 










Legend :    VFR   Marginal VFR   IFR   Intensive IFR   Very Intensive IFR
Visi :
Ceiling :
>= 8 km
>= 3000ft
5 to 8 km
1000 to 3000 ft
1500m to 5 km
500 to 1000 ft
800 to 1500m
200 to 500 ft
< 800m
< 200 ft
Symbols :   Thunderstorms  Fog  Heavy snow  Heavy precipitations  Wind > 20 kt
SIGMETs :     Misc.  Thunderstorms  Icing  Turbulence  Mountain Waves  Volcanic Ashes






- Airport Elevation : 535 ft


LFBF - Toulouse / Francazal

CURRENT METAR :
  • 151000Z AUTO VRB02KT CAVOK 23/14 Q1011

EXPIRED METARs :
  • 150930Z AUTO VRB03KT 9999 OVC049 23/14 Q1011
  • 150900Z AUTO 34003KT 270V030 9999 OVC048 22/14 Q1011
  • 150830Z AUTO 30005KT 270V010 9999 OVC047 22/14 Q1011
  • 150800Z AUTO 33004KT 280V020 9999 OVC046 21/14 Q1011
  • 150730Z AUTO 30004KT 260V330 9999 OVC046 21/14 Q1011

TAF N/A



MET'MAP, your aeronautical weather chart ! - Copyright ORBIFLY December 2007 - Disclaimer

ORBIFLY MET'MAP TEAM :

Programming & Development : Alexandra Zaïnal
Original concept : Baudouin d'Aumeries
Technical & hardware support : Manuel Goepfert
Assistance : Marc-Olivier Méhu




SOURCES & CREDITS :

   NOAA